Time;durP1;ratioP1;P1;durP2;ratioP2;P2;SDS_P1;SDS_P2;PMS_P1;PMS_P2;Temp;Humidity;BMP_temperature;BMP_pressure;BME280_temperature;BME280_humidity;BME280_pressure;Samples;Min_cycle;Max_cycle;Signal;HPM_P1;HPM_P2
2021/12/03 00:00:31;;;;;;;9.35;4.50;;;;;;;-0.73;100.00;99892.94;7396210;19;20245;-43
2021/12/03 00:03:04;;;;;;;6.18;3.92;;;;;;;-0.72;100.00;99885.47;7400705;19;20123;-43
2021/12/03 00:05:34;;;;;;;4.38;2.05;;;;;;;-0.72;100.00;99865.19;7395738;19;20197;-43
2021/12/03 00:08:04;;;;;;;4.45;2.50;;;;;;;-0.74;100.00;99869.28;7398746;19;20166;-43
2021/12/03 00:10:35;;;;;;;4.60;2.65;;;;;;;-0.77;100.00;99875.78;7398039;19;20196;-44
2021/12/03 00:13:06;;;;;;;7.13;3.85;;;;;;;-0.76;100.00;99883.50;7400395;19;20131;-43
2021/12/03 00:15:40;;;;;;;12.82;4.50;;;;;;;-0.81;100.00;99884.81;7395003;19;20189;-45
2021/12/03 00:18:12;;;;;;;8.50;3.50;;;;;;;-0.80;100.00;99875.53;7401435;19;20169;-48
2021/12/03 00:20:41;;;;;;;6.85;3.70;;;;;;;-0.79;100.00;99870.59;7395854;19;20193;-47
2021/12/03 00:23:11;;;;;;;8.80;4.57;;;;;;;-0.79;100.00;99879.84;7400013;19;20517;-47
2021/12/03 00:25:41;;;;;;;7.22;3.42;;;;;;;-0.82;100.00;99881.38;7395070;19;20196;-46
2021/12/03 00:28:11;;;;;;;5.38;3.33;;;;;;;-0.84;100.00;99885.47;7397998;19;20222;-48
2021/12/03 00:30:40;;;;;;;8.55;3.65;;;;;;;-0.84;100.00;99882.94;7394455;19;20186;-47
2021/12/03 00:33:12;;;;;;;5.90;3.72;;;;;;;-0.82;100.00;99870.38;7399766;19;20136;-44
2021/12/03 00:35:42;;;;;;;4.85;2.90;;;;;;;-0.84;100.00;99887.09;7392431;19;20203;-42
2021/12/03 00:38:11;;;;;;;7.88;3.80;;;;;;;-0.87;100.00;99890.28;7397666;19;20427;-45
2021/12/03 00:40:41;;;;;;;6.95;3.88;;;;;;;-0.86;100.00;99899.66;7395032;19;20182;-46
2021/12/03 00:43:11;;;;;;;12.85;4.30;;;;;;;-0.86;100.00;99904.72;7401397;19;20130;-44
2021/12/03 00:45:42;;;;;;;5.00;2.95;;;;;;;-0.83;100.00;99911.66;7394567;19;20217;-48
2021/12/03 00:48:15;;;;;;;5.25;3.50;;;;;;;-0.76;100.00;99907.94;7397530;19;20162;-45
2021/12/03 00:50:44;;;;;;;6.40;3.22;;;;;;;-0.80;100.00;99919.50;7394459;19;20190;-46
2021/12/03 00:53:14;;;;;;;4.93;2.92;;;;;;;-0.78;100.00;99907.81;7399368;19;20123;-47
2021/12/03 00:55:43;;;;;;;8.00;2.53;;;;;;;-0.79;100.00;99916.19;7394353;19;20178;-47
2021/12/03 00:58:12;;;;;;;8.23;2.55;;;;;;;-0.73;100.00;99916.66;7397133;19;20170;-47
2021/12/03 01:00:42;;;;;;;7.90;3.40;;;;;;;-0.72;100.00;99912.47;7394508;19;20246;-46
2021/12/03 01:03:14;;;;;;;5.55;1.92;;;;;;;-0.75;100.00;99910.59;7398963;19;20142;-47
2021/12/03 01:05:44;;;;;;;3.33;2.15;;;;;;;-0.70;100.00;99905.84;7393419;19;20253;-47
2021/12/03 01:08:13;;;;;;;3.63;1.85;;;;;;;-0.72;100.00;99908.28;7396427;19;20165;-49
2021/12/03 01:10:43;;;;;;;3.88;1.90;;;;;;;-0.68;100.00;99910.28;7393514;19;20186;-51
2021/12/03 01:13:13;;;;;;;4.72;1.92;;;;;;;-0.68;100.00;99906.84;7398794;19;20123;-47
2021/12/03 01:15:43;;;;;;;3.50;1.50;;;;;;;-0.67;100.00;99906.06;7393531;19;20258;-44
2021/12/03 01:18:15;;;;;;;4.88;1.75;;;;;;;-0.64;100.00;99906.31;7396419;19;20161;-47
2021/12/03 01:20:46;;;;;;;6.82;2.00;;;;;;;-0.62;100.00;99914.03;7394321;19;20182;-46
2021/12/03 01:23:16;;;;;;;1.95;1.38;;;;;;;-0.62;100.00;99921.63;7398411;19;20119;-46
2021/12/03 01:25:45;;;;;;;5.28;1.25;;;;;;;-0.56;100.00;99917.00;7395076;19;20189;-47
2021/12/03 01:28:16;;;;;;;3.50;1.60;;;;;;;-0.54;100.00;99923.06;7395953;19;20177;-45
2021/12/03 01:30:46;;;;;;;6.28;2.33;;;;;;;-0.44;100.00;99915.38;7393321;19;20182;-44
2021/12/03 01:33:18;;;;;;;4.80;1.30;;;;;;;-0.47;100.00;99915.13;7402367;19;20442;-44
2021/12/03 01:35:47;;;;;;;7.07;1.60;;;;;;;-0.38;100.00;99919.97;7393077;19;20586;-44
2021/12/03 01:38:17;;;;;;;7.40;1.70;;;;;;;-0.37;100.00;99921.75;7395487;19;20155;-44
2021/12/03 01:40:47;;;;;;;5.82;2.00;;;;;;;-0.33;100.00;99922.84;7393645;19;20250;-46
2021/12/03 01:43:21;;;;;;;2.13;0.93;;;;;;;-0.36;100.00;99917.56;7397995;19;20119;-45
2021/12/03 01:45:53;;;;;;;7.78;1.70;;;;;;;-0.38;100.00;99924.16;7395097;19;20256;-52
2021/12/03 01:48:25;;;;;;;6.30;2.25;;;;;;;-0.37;100.00;99924.28;7405047;19;20190;-49
2021/12/03 01:50:55;;;;;;;8.95;1.30;;;;;;;-0.44;100.00;99924.59;7400207;19;20182;-50
2021/12/03 01:53:27;;;;;;;5.97;1.45;;;;;;;-0.39;100.00;99915.69;7405106;19;20168;-52
2021/12/03 01:55:59;;;;;;;2.78;1.00;;;;;;;-0.44;100.00;99922.97;7402095;19;20186;-48
2021/12/03 01:58:29;;;;;;;5.00;1.60;;;;;;;-0.42;100.00;99920.53;7404703;19;20123;-50
2021/12/03 02:01:01;;;;;;;4.80;2.38;;;;;;;-0.39;100.00;99920.75;7400158;19;20252;-45
2021/12/03 02:03:35;;;;;;;4.68;1.80;;;;;;;-0.37;100.00;99915.81;7404596;19;20145;-45
2021/12/03 02:06:06;;;;;;;7.65;1.30;;;;;;;-0.47;100.00;99920.19;7396033;19;20186;-44
2021/12/03 02:08:36;;;;;;;3.20;1.38;;;;;;;-0.47;100.00;99914.25;7404125;19;20141;-47
2021/12/03 02:11:07;;;;;;;8.63;2.60;;;;;;;-0.47;100.00;99925.25;7399129;19;20242;-48
2021/12/03 02:13:38;;;;;;;3.72;1.70;;;;;;;-0.53;100.00;99924.81;7407800;19;20201;-48
2021/12/03 02:16:08;;;;;;;8.05;2.15;;;;;;;-0.52;100.00;99926.56;7398433;19;20589;-48
2021/12/03 02:18:41;;;;;;;5.13;2.95;;;;;;;-0.52;100.00;99920.66;7404135;19;20115;-44
2021/12/03 02:21:14;;;;;;;6.65;2.55;;;;;;;-0.55;100.00;99931.44;7399640;19;20182;-44
2021/12/03 02:23:44;;;;;;;7.38;2.90;;;;;;;-0.48;100.00;99937.81;7404090;19;20136;-44
2021/12/03 02:26:14;;;;;;;1.85;1.15;;;;;;;-0.52;100.00;99931.66;7401610;19;20624;-47
2021/12/03 02:28:46;;;;;;;4.70;2.13;;;;;;;-0.51;100.00;99930.88;7403895;19;20183;-43
2021/12/03 02:31:19;;;;;;;6.75;3.28;;;;;;;-0.47;100.00;99937.06;7398601;19;20652;-43
2021/12/03 02:33:49;;;;;;;4.85;1.58;;;;;;;-0.38;100.00;99934.28;7403718;19;20127;-45
2021/12/03 02:36:21;;;;;;;3.70;1.88;;;;;;;-0.36;100.00;99937.84;7399465;19;20221;-45
2021/12/03 02:38:51;;;;;;;3.28;2.13;;;;;;;-0.37;100.00;99946.22;7403366;19;20135;-44
2021/12/03 02:41:20;;;;;;;6.30;1.98;;;;;;;-0.41;100.00;99943.47;7398766;19;20186;-48
2021/12/03 02:43:50;;;;;;;5.97;2.47;;;;;;;-0.38;100.00;99939.38;7403284;19;20175;-47
2021/12/03 02:46:20;;;;;;;8.73;2.83;;;;;;;-0.39;100.00;99950.28;7397109;19;20206;-47
2021/12/03 02:48:50;;;;;;;6.20;2.83;;;;;;;-0.37;100.00;99959.78;7403121;19;20123;-44
2021/12/03 02:51:22;;;;;;;4.97;1.60;;;;;;;-0.35;100.00;99949.75;7398242;19;20186;-47
2021/12/03 02:53:52;;;;;;;2.97;1.25;;;;;;;-0.35;100.00;99959.88;7403098;19;20380;-44
2021/12/03 02:56:21;;;;;;;4.47;2.00;;;;;;;-0.35;100.00;99952.28;7396510;19;20194;-46
2021/12/03 02:58:51;;;;;;;6.63;2.55;;;;;;;-0.34;100.00;99960.00;7400812;19;20123;-44
2021/12/03 03:01:20;;;;;;;3.20;2.17;;;;;;;-0.37;100.00;99942.03;7398289;19;20288;-46
2021/12/03 03:03:50;;;;;;;4.32;1.75;;;;;;;-0.37;100.00;99941.16;7402508;19;20138;-45
2021/12/03 03:06:22;;;;;;;7.30;2.42;;;;;;;-0.37;100.00;99946.22;7396500;19;20644;-44
2021/12/03 03:08:52;;;;;;;8.23;2.80;;;;;;;-0.35;100.00;99940.50;7402257;19;20205;-48
2021/12/03 03:11:22;;;;;;;4.15;1.85;;;;;;;-0.37;100.00;99951.28;7397405;19;20465;-45
2021/12/03 03:13:52;;;;;;;7.53;2.70;;;;;;;-0.39;100.00;99942.69;7402261;19;20127;-43
2021/12/03 03:16:22;;;;;;;6.05;2.20;;;;;;;-0.43;100.00;99941.56;7396454;19;20190;-48
2021/12/03 03:18:52;;;;;;;5.85;2.10;;;;;;;-0.42;100.00;99944.22;7402109;19;20146;-47
2021/12/03 03:21:24;;;;;;;7.63;2.60;;;;;;;-0.36;100.00;99940.38;7397680;19;20186;-44
2021/12/03 03:23:54;;;;;;;8.25;1.70;;;;;;;-0.35;100.00;99935.44;7402080;19;20123;-51
2021/12/03 03:26:23;;;;;;;5.18;2.38;;;;;;;-0.36;100.00;99935.31;7396169;19;20467;-45
2021/12/03 03:28:57;;;;;;;8.65;2.00;;;;;;;-0.30;100.00;99933.22;7403100;19;20119;-48
2021/12/03 03:31:26;;;;;;;7.20;2.58;;;;;;;-0.33;100.00;99945.66;7399177;19;20206;-48
2021/12/03 03:33:56;;;;;;;2.75;1.25;;;;;;;-0.31;100.00;99949.22;7401816;19;20419;-48
2021/12/03 03:36:28;;;;;;;2.92;1.80;;;;;;;-0.31;100.00;99951.75;7394924;19;20186;-46
2021/12/03 03:38:58;;;;;;;3.80;1.90;;;;;;;-0.30;100.00;99953.50;7401509;19;20171;-46
2021/12/03 03:41:27;;;;;;;4.95;1.70;;;;;;;-0.25;100.00;99967.41;7397141;19;20510;-44
2021/12/03 03:43:57;;;;;;;5.47;2.35;;;;;;;-0.23;100.00;99981.06;7401699;19;20556;-49
2021/12/03 03:46:27;;;;;;;10.93;2.80;;;;;;;-0.24;100.00;99974.22;7395559;19;20254;-50
2021/12/03 03:48:57;;;;;;;5.30;3.17;;;;;;;-0.21;100.00;99974.44;7401274;19;20127;-45
2021/12/03 03:51:29;;;;;;;5.68;3.17;;;;;;;-0.19;100.00;99972.03;7396797;19;20512;-47
2021/12/03 03:53:59;;;;;;;8.35;3.65;;;;;;;-0.22;100.00;99976.84;7401095;19;20402;-45
2021/12/03 03:56:29;;;;;;;10.93;3.42;;;;;;;-0.25;100.00;99967.41;7394494;19;20590;-48
2021/12/03 03:58:59;;;;;;;7.88;3.70;;;;;;;-0.27;100.00;99974.00;7402169;19;20131;-52
2021/12/03 04:01:28;;;;;;;5.10;3.40;;;;;;;-0.29;100.00;99970.47;7396355;19;20262;-47
2021/12/03 04:03:58;;;;;;;4.88;3.63;;;;;;;-0.29;100.00;99961.19;7400722;19;20142;-46
2021/12/03 04:06:30;;;;;;;7.35;3.28;;;;;;;-0.37;100.00;99956.38;7394852;19;20538;-46
2021/12/03 04:09:01;;;;;;;11.40;4.20;;;;;;;-0.34;100.00;99943.91;7399988;19;20123;-48
2021/12/03 04:11:31;;;;;;;7.38;4.32;;;;;;;-0.38;100.00;99939.38;7396097;19;20246;-51
2021/12/03 04:14:00;;;;;;;5.93;4.30;;;;;;;-0.42;100.00;99945.88;7398518;19;20129;-45
2021/12/03 04:16:30;;;;;;;11.70;4.25;;;;;;;-0.44;100.00;99955.91;7394502;19;20208;-48
2021/12/03 04:19:00;;;;;;;8.65;5.60;;;;;;;-0.40;100.00;99946.88;7400204;19;20127;-53
2021/12/03 04:21:33;;;;;;;12.63;5.43;;;;;;;-0.35;100.00;99959.88;7399072;19;20193;-45
2021/12/03 04:24:03;;;;;;;8.57;5.57;;;;;;;-0.08;100.00;99980.41;7400088;19;20195;-51
2021/12/03 04:26:33;;;;;;;9.20;5.40;;;;;;;-0.01;100.00;99997.81;7394173;19;20194;-49
2021/12/03 04:29:02;;;;;;;12.52;5.40;;;;;;;0.04;100.00;99988.88;7399772;19;20127;-52
2021/12/03 04:31:32;;;;;;;9.45;4.70;;;;;;;-0.17;100.00;99963.75;7398994;19;20186;-51
2021/12/03 04:34:01;;;;;;;8.95;4.57;;;;;;;-0.29;100.00;99965.41;7399722;19;20528;-47
2021/12/03 04:36:33;;;;;;;12.35;6.05;;;;;;;-0.13;100.00;99975.00;7393908;19;20455;-45
2021/12/03 04:39:03;;;;;;;8.25;5.20;;;;;;;-0.16;100.00;99965.50;7399534;19;20171;-46
2021/12/03 04:41:32;;;;;;;8.00;5.20;;;;;;;-0.28;100.00;99965.53;7394907;19;20452;-47
2021/12/03 04:44:02;;;;;;;11.07;5.10;;;;;;;-0.29;100.00;99965.41;7399442;19;20127;-43
2021/12/03 04:46:31;;;;;;;7.88;3.72;;;;;;;-0.34;100.00;99951.50;7393928;19;20258;-43
2021/12/03 04:49:01;;;;;;;8.18;4.45;;;;;;;-0.44;100.00;99944.88;7399355;19;20187;-49
2021/12/03 04:51:33;;;;;;;7.00;4.13;;;;;;;-0.57;100.00;99936.38;7394460;19;20186;-46
2021/12/03 04:54:03;;;;;;;15.50;6.03;;;;;;;-0.56;100.00;99934.75;7397839;19;20129;-51
2021/12/03 04:56:32;;;;;;;6.60;4.60;;;;;;;-0.57;100.00;99931.31;7393169;19;20246;-50
2021/12/03 04:59:02;;;;;;;10.85;4.63;;;;;;;-0.59;100.00;99942.09;7399051;19;20123;-53
2021/12/03 05:01:31;;;;;;;4.22;3.30;;;;;;;-0.62;100.00;99945.31;7394667;19;20246;-53
2021/12/03 05:04:01;;;;;;;8.60;5.85;;;;;;;-0.53;100.00;99942.56;7399221;19;20127;-52
2021/12/03 05:06:52;;;;;;;11.38;5.50;;;;;;;-0.51;100.00;99948.63;7392963;19;20190;-44
2021/12/03 05:09:22;;;;;;;9.73;5.68;;;;;;;-0.39;100.00;99948.66;7398695;19;20453;-47
2021/12/03 05:11:54;;;;;;;10.55;5.30;;;;;;;-0.32;100.00;99955.03;7394173;19;20256;-48
2021/12/03 05:14:23;;;;;;;7.95;4.75;;;;;;;-0.36;100.00;99958.13;7396725;19;20127;-50
2021/12/03 05:16:53;;;;;;;6.10;4.28;;;;;;;-0.45;100.00;99954.13;7392872;19;20246;-43
2021/12/03 05:19:22;;;;;;;7.60;4.20;;;;;;;-0.44;100.00;99943.25;7398567;19;20140;-46
2021/12/03 05:21:54;;;;;;;5.93;3.72;;;;;;;-0.46;100.00;99942.22;7399948;19;20186;-48
2021/12/03 05:24:24;;;;;;;14.43;5.35;;;;;;;-0.41;100.00;99937.53;7405720;19;20521;-46
2021/12/03 05:26:53;;;;;;;7.60;4.70;;;;;;;-0.46;100.00;99942.22;7399406;19;20250;-49
2021/12/03 05:29:23;;;;;;;6.72;4.95;;;;;;;-0.39;100.00;99940.16;7408614;19;20182;-45
2021/12/03 05:31:53;;;;;;;11.20;5.25;;;;;;;-0.43;100.00;99946.66;7401160;19;20182;-46
2021/12/03 05:34:29;;;;;;;8.25;4.60;;;;;;;-0.46;100.00;99942.22;7398889;19;20517;-48
2021/12/03 05:37:01;;;;;;;12.07;5.22;;;;;;;-0.50;100.00;99942.81;7406607;19;20408;-48
2021/12/03 05:39:31;;;;;;;8.77;4.60;;;;;;;-0.53;100.00;99937.50;7401382;19;20202;-46
2021/12/03 05:42:00;;;;;;;7.65;4.32;;;;;;;-0.48;100.00;99951.38;7405481;19;20175;-49
2021/12/03 05:44:31;;;;;;;11.05;5.07;;;;;;;-0.55;100.00;99956.78;7401620;19;20134;-46
2021/12/03 05:47:01;;;;;;;8.73;4.90;;;;;;;-0.50;100.00;99959.66;7402580;19;20223;-43
2021/12/03 05:49:31;;;;;;;11.45;5.15;;;;;;;-0.53;100.00;99957.75;7401276;19;20178;-45
2021/12/03 05:52:03;;;;;;;8.50;5.45;;;;;;;-0.51;100.00;99956.22;7408653;19;20542;-50
2021/12/03 05:54:33;;;;;;;10.38;6.15;;;;;;;-0.50;100.00;99960.53;7398552;19;20187;-51
2021/12/03 05:57:02;;;;;;;9.40;6.03;;;;;;;-0.48;100.00;99961.53;7402247;19;20161;-54
2021/12/03 05:59:31;;;;;;;9.90;6.07;;;;;;;-0.52;100.00;99967.13;7401019;19;20419;-49
2021/12/03 06:02:01;;;;;;;20.05;6.00;;;;;;;-0.53;100.00;99965.38;7403895;19;20195;-47
2021/12/03 06:04:32;;;;;;;5.57;4.25;;;;;;;-0.49;100.00;99961.41;7400155;19;20146;-43
2021/12/03 06:07:04;;;;;;;9.00;4.82;;;;;;;-0.48;100.00;99961.53;7401894;19;20155;-49
2021/12/03 06:09:34;;;;;;;6.25;4.30;;;;;;;-0.50;100.00;99960.53;7400092;19;20119;-51
2021/12/03 06:12:03;;;;;;;10.85;7.55;;;;;;;-0.46;100.00;99959.13;7404158;19;20184;-43
2021/12/03 06:14:33;;;;;;;13.07;7.25;;;;;;;-0.49;100.00;99966.47;7398397;19;20186;-43
2021/12/03 06:17:03;;;;;;;14.60;6.40;;;;;;;-0.56;100.00;99958.41;7401741;19;20166;-46
2021/12/03 06:19:36;;;;;;;10.68;6.10;;;;;;;-0.56;100.00;99952.50;7400284;19;20127;-43
2021/12/03 06:22:08;;;;;;;9.23;6.38;;;;;;;-0.57;100.00;99951.59;7403617;19;20119;-47
2021/12/03 06:24:38;;;;;;;6.53;3.60;;;;;;;-0.60;100.00;99945.41;7400714;19;20388;-44
2021/12/03 06:27:08;;;;;;;10.65;7.20;;;;;;;-0.53;100.00;99940.03;7401459;19;20154;-49
2021/12/03 06:29:37;;;;;;;7.50;4.05;;;;;;;-0.59;100.00;99934.50;7400925;19;20127;-43
2021/12/03 06:32:11;;;;;;;10.57;7.30;;;;;;;-0.53;100.00;99929.88;7402614;19;20131;-46
2021/12/03 06:34:40;;;;;;;7.80;4.07;;;;;;;-0.50;100.00;99941.91;7397953;19;20130;-44
2021/12/03 06:37:12;;;;;;;14.65;7.65;;;;;;;-0.50;100.00;99940.28;7401233;19;20159;-45
2021/12/03 06:39:42;;;;;;;11.35;7.03;;;;;;;-0.46;100.00;99942.22;7399291;19;20131;-52
2021/12/03 06:42:12;;;;;;;9.88;6.22;;;;;;;-0.47;100.00;99948.06;7402638;19;20130;-45
2021/12/03 06:44:41;;;;;;;11.13;6.85;;;;;;;-0.42;100.00;99939.16;7398914;19;20193;-50
2021/12/03 06:47:11;;;;;;;9.45;7.35;;;;;;;-0.36;100.00;99950.53;7400661;19;20159;-47
2021/12/03 06:49:41;;;;;;;9.88;6.25;;;;;;;-0.39;100.00;99956.25;7399262;19;20391;-45
2021/12/03 06:52:15;;;;;;;12.23;7.35;;;;;;;-0.36;100.00;99964.06;7402340;19;20396;-45
2021/12/03 06:54:52;;;;;;;10.15;7.97;;;;;;;-0.25;100.00;99966.50;7397422;19;20146;-48
2021/12/03 06:57:22;;;;;;;11.35;7.35;;;;;;;-0.20;100.00;99975.34;7400746;19;20151;-47
2021/12/03 06:59:51;;;;;;;11.98;7.95;;;;;;;-0.17;100.00;99973.00;7398091;19;20190;-46
2021/12/03 07:02:21;;;;;;;9.43;5.97;;;;;;;-0.29;100.00;99973.88;7402350;19;20175;-46
2021/12/03 07:04:51;;;;;;;10.23;7.55;;;;;;;-0.31;100.00;99977.97;7397906;19;20183;-46
2021/12/03 07:07:23;;;;;;;10.70;7.15;;;;;;;-0.34;100.00;99962.53;7400324;19;20159;-46
2021/12/03 07:09:52;;;;;;;15.48;8.55;;;;;;;-0.35;100.00;99964.97;7397561;19;20497;-48
2021/12/03 07:12:22;;;;;;;10.43;6.15;;;;;;;-0.33;100.00;99968.47;7402222;19;20178;-48
2021/12/03 07:14:51;;;;;;;10.77;6.03;;;;;;;-0.37;100.00;99972.44;7397222;19;20730;-45
2021/12/03 07:17:21;;;;;;;12.40;7.25;;;;;;;-0.39;100.00;99973.09;7400342;19;20161;-46
2021/12/03 07:19:50;;;;;;;10.98;6.63;;;;;;;-0.43;100.00;99967.81;7397804;19;20182;-45
2021/12/03 07:22:19;;;;;;;12.68;6.53;;;;;;;-0.45;100.00;99959.19;7402665;19;20121;-44
2021/12/03 07:24:51;;;;;;;8.05;5.10;;;;;;;-0.52;100.00;99961.19;7397470;19;20266;-46
2021/12/03 07:27:21;;;;;;;8.50;6.47;;;;;;;-0.55;100.00;99964.38;7399570;19;20159;-50
2021/12/03 07:29:51;;;;;;;12.30;6.18;;;;;;;-0.58;100.00;99959.06;7397331;19;20186;-47
2021/12/03 07:32:22;;;;;;;9.73;6.90;;;;;;;-0.59;100.00;99960.75;7401611;19;20137;-49
2021/12/03 07:34:52;;;;;;;11.18;5.90;;;;;;;-0.64;100.00;99961.16;7396045;19;20192;-47
2021/12/03 07:37:21;;;;;;;13.13;7.28;;;;;;;-0.68;100.00;99960.94;7404021;19;20155;-49
2021/12/03 07:39:54;;;;;;;10.93;6.40;;;;;;;-0.73;100.00;99957.19;7397065;19;20190;-49
2021/12/03 07:42:23;;;;;;;13.57;9.18;;;;;;;-0.78;100.00;99948.34;7401277;19;20129;-49
2021/12/03 07:44:53;;;;;;;9.25;4.57;;;;;;;-0.85;100.00;99957.16;7395776;19;20579;-48
2021/12/03 07:47:22;;;;;;;12.63;6.95;;;;;;;-0.82;100.00;99956.50;7399323;19;20218;-51
2021/12/03 07:49:52;;;;;;;9.25;5.95;;;;;;;-0.82;100.00;99953.97;7396893;19;20186;-51
2021/12/03 07:52:22;;;;;;;11.00;6.80;;;;;;;-0.89;100.00;99959.31;7401142;19;20123;-44
2021/12/03 07:54:54;;;;;;;13.88;6.15;;;;;;;-0.92;100.00;99949.84;7395898;19;20182;-52
2021/12/03 07:57:24;;;;;;;13.88;8.07;;;;;;;-0.92;100.00;99949.84;7400794;19;20587;-49
2021/12/03 07:59:54;;;;;;;12.23;6.88;;;;;;;-0.93;100.00;99953.16;7396380;19;20860;-48
2021/12/03 08:02:24;;;;;;;8.13;6.25;;;;;;;-0.94;100.00;99960.66;7400593;19;20123;-47
2021/12/03 08:04:54;;;;;;;13.48;8.27;;;;;;;-0.94;100.00;99955.59;7395871;19;20186;-50
2021/12/03 08:07:23;;;;;;;18.80;9.35;;;;;;;-0.94;100.00;99950.53;7398638;19;20218;-47
2021/12/03 08:09:55;;;;;;;16.50;9.52;;;;;;;-0.89;100.00;99954.25;7395648;19;20196;-45
2021/12/03 08:12:25;;;;;;;12.35;5.95;;;;;;;-0.90;100.00;99949.97;7400402;19;20175;-44
2021/12/03 08:14:54;;;;;;;10.90;7.82;;;;;;;-0.87;100.00;99952.75;7395219;19;20314;-46
2021/12/03 08:17:24;;;;;;;13.65;7.07;;;;;;;-0.89;100.00;99960.22;7398671;19;20169;-44
2021/12/03 08:19:53;;;;;;;8.63;4.78;;;;;;;-0.86;100.00;99957.03;7395606;19;20194;-44
2021/12/03 08:22:23;;;;;;;9.20;5.75;;;;;;;-0.82;100.00;99952.31;7399815;19;20185;-50
2021/12/03 08:24:52;;;;;;;11.88;6.75;;;;;;;-0.75;100.00;99955.31;7398611;19;20193;-45
2021/12/03 08:27:25;;;;;;;20.10;5.72;;;;;;;-0.78;100.00;99962.69;7399739;19;20178;-44
2021/12/03 08:29:54;;;;;;;11.48;6.15;;;;;;;-0.76;100.00;99964.56;7395989;19;20245;-48
2021/12/03 08:32:24;;;;;;;19.15;10.07;;;;;;;-0.71;100.00;99965.78;7399625;19;20119;-44
2021/12/03 08:34:53;;;;;;;14.50;7.03;;;;;;;-0.73;100.00;99966.41;7394738;19;20190;-45
2021/12/03 08:37:23;;;;;;;12.02;7.90;;;;;;;-0.65;100.00;99970.44;7397856;19;20498;-47
2021/12/03 08:39:52;;;;;;;17.83;8.70;;;;;;;-0.60;100.00;99968.22;7394928;19;20182;-46
2021/12/03 08:42:24;;;;;;;13.27;7.97;;;;;;;-0.56;100.00;99960.09;7399338;19;20127;-47
2021/12/03 08:44:54;;;;;;;11.27;6.40;;;;;;;-0.56;100.00;99971.09;7394884;19;20254;-44
2021/12/03 08:47:23;;;;;;;8.75;4.53;;;;;;;-0.51;100.00;99968.03;7397274;19;20476;-44
2021/12/03 08:49:55;;;;;;;24.85;7.85;;;;;;;-0.45;100.00;99964.28;7394958;19;20266;-43
2021/12/03 08:52:49;;;;;;;15.55;10.02;;;;;;;-0.46;100.00;99954.91;7399214;19;20378;-45
2021/12/03 08:55:16;;;;;;;11.73;5.63;;;;;;;-0.43;100.00;99950.06;7395091;19;20193;-48
2021/12/03 08:57:48;;;;;;;14.52;8.57;;;;;;;-0.37;100.00;99952.16;7403946;19;20587;-44
2021/12/03 09:00:20;;;;;;;11.00;5.75;;;;;;;-0.34;100.00;99961.66;7402294;19;20250;-43
2021/12/03 09:02:50;;;;;;;10.82;6.10;;;;;;;-0.32;100.00;99965.16;7406461;19;20174;-44
2021/12/03 09:05:19;;;;;;;12.00;5.57;;;;;;;-0.26;100.00;99954.59;7401821;19;20194;-45
2021/12/03 09:07:49;;;;;;;10.20;6.72;;;;;;;-0.20;100.00;99960.97;7403864;19;20178;-45
2021/12/03 09:10:32;;;;;;;16.00;10.40;;;;;;;-0.14;100.00;99961.44;7401354;19;20189;-45
2021/12/03 09:13:05;;;;;;;14.63;8.70;;;;;;;-0.15;100.00;99972.34;7406082;19;20376;-45
2021/12/03 09:15:39;;;;;;;16.02;7.35;;;;;;;-0.12;100.00;99973.34;7399694;19;20186;-43
2021/12/03 09:18:19;;;;;;;9.95;4.43;;;;;;;-0.10;100.00;99972.66;7403141;19;20158;-43
2021/12/03 09:21:02;;;;;;;17.23;8.48;;;;;;;-0.07;100.00;99964.41;7403132;19;20194;-47
2021/12/03 09:23:42;;;;;;;11.73;7.30;;;;;;;-0.03;100.00;99961.31;7405938;19;20178;-43
2021/12/03 09:26:13;;;;;;;15.30;8.90;;;;;;;-0.03;100.00;99961.31;7400513;19;20238;-46
2021/12/03 09:28:48;;;;;;;18.67;8.57;;;;;;;-0.09;100.00;99959.25;7405522;19;20127;-47
2021/12/03 09:31:18;;;;;;;14.13;7.30;;;;;;;-0.02;100.00;99951.28;7401286;19;20250;-47
2021/12/03 09:33:49;;;;;;;17.80;8.32;;;;;;;-0.06;100.00;99954.38;7405624;19;20423;-45
2021/12/03 09:36:19;;;;;;;14.70;6.22;;;;;;;0.02;100.00;99951.50;7398629;19;20246;-44
2021/12/03 09:38:49;;;;;;;14.40;8.90;;;;;;;-0.04;100.00;99967.19;7405212;19;20187;-43
2021/12/03 09:41:20;;;;;;;18.55;9.13;;;;;;;-0.04;100.00;99955.34;7400996;19;20241;-43
2021/12/03 09:43:55;;;;;;;18.13;9.43;;;;;;;-0.05;100.00;99953.59;7405892;19;20140;-45
2021/12/03 09:46:25;;;;;;;22.50;8.73;;;;;;;-0.10;100.00;99957.44;7399282;19;20256;-47
2021/12/03 09:49:19;;;;;;;17.02;8.70;;;;;;;-0.03;100.00;99954.59;7404628;19;20135;-46
2021/12/03 09:51:56;;;;;;;25.23;10.23;;;;;;;0.01;100.00;99949.75;7400555;19;20190;-47
2021/12/03 09:54:35;;;;;;;17.00;8.77;;;;;;;-0.01;100.00;99942.00;7404884;19;20131;-46
2021/12/03 09:57:09;;;;;;;19.40;10.48;;;;;;;-0.06;100.00;99943.38;7400980;19;20186;-47
2021/12/03 10:02:33;;;;;;;12.80;5.68;;;;;;;-0.15;100.00;99953.72;7404861;19;20130;-43
2021/12/03 10:13:29;;;;;;;22.42;10.88;;;;;;;-0.09;100.00;99938.06;7403758;19;20123;-45
2021/12/03 10:16:08;;;;;;;26.00;13.25;;;;;;;-0.12;100.00;99932.78;7397608;19;20207;-45
2021/12/03 10:18:48;;;;;;;18.15;10.02;;;;;;;-0.01;100.00;99931.88;7404451;19;20118;-46
2021/12/03 10:21:40;;;;;;;19.77;9.25;;;;;;;-0.01;100.00;99926.78;7399891;19;20190;-46
2021/12/03 10:25:04;;;;;;;24.63;12.00;;;;;;;-0.04;100.00;99934.19;7406793;19;20133;-49
2021/12/03 10:33:46;;;;;;;31.80;14.15;;;;;;;0.00;100.00;99915.91;7403007;19;20145;-51
2021/12/03 10:39:16;;;;;;;18.33;8.88;;;;;;;-0.05;100.00;99910.47;7403467;19;20119;-45
2021/12/03 10:41:54;;;;;;;16.70;7.78;;;;;;;0.07;100.00;99905.41;7398685;19;20620;-48
2021/12/03 10:47:14;;;;;;;25.65;13.73;;;;;;;0.04;100.00;99904.31;7399918;19;20198;-45
2021/12/03 10:50:08;;;;;;;22.83;10.38;;;;;;;0.04;100.00;99895.03;7398437;19;20186;-47
2021/12/03 10:52:48;;;;;;;40.25;19.20;;;;;;;0.10;100.00;99885.31;7402936;19;20144;-48
2021/12/03 10:55:57;;;;;;;15.70;8.15;;;;;;;0.09;100.00;99885.19;7398149;19;20242;-43
2021/12/03 11:13:03;;;;;;;28.58;15.77;;;;;;;0.30;100.00;99867.19;7402076;19;20133;-52
2021/12/03 11:29:49;;;;;;;18.40;10.00;;;;;;;0.33;100.00;99844.53;7401864;19;20123;-44
2021/12/03 11:35:34;;;;;;;27.73;12.35;;;;;;;0.35;100.00;99831.19;7396787;19;20196;-46
2021/12/03 14:38:08;;;;;;;29.05;10.00;;;;;;;0.45;100.00;99604.22;7401517;19;20162;-46
2021/12/03 14:43:44;;;;;;;34.97;10.90;;;;;;;0.45;100.00;99595.75;7403644;19;20179;-44
2021/12/03 14:49:23;;;;;;;16.65;6.57;;;;;;;0.45;100.00;99583.94;7403155;19;20171;-49
2021/12/03 14:54:55;;;;;;;26.58;10.48;;;;;;;0.43;100.00;99577.00;7396331;19;20190;-50
2021/12/03 14:57:40;;;;;;;53.80;18.02;;;;;;;0.46;100.00;99565.38;7400641;19;20223;-46
2021/12/03 15:00:26;;;;;;;30.60;11.63;;;;;;;0.45;100.00;99580.53;7397902;19;20190;-47
2021/12/03 15:08:34;;;;;;;29.90;11.23;;;;;;;0.38;100.00;99567.44;7402366;19;20467;-46
2021/12/03 15:25:36;;;;;;;37.38;14.88;;;;;;;0.39;100.00;99548.91;7396577;19;20274;-46
2021/12/03 15:31:03;;;;;;;30.60;12.77;;;;;;;0.35;100.00;99541.84;7396192;19;20190;-44
2021/12/03 15:36:26;;;;;;;18.45;8.88;;;;;;;0.20;100.00;99536.69;7395417;19;20194;-48
2021/12/03 15:58:45;;;;;;;23.50;8.35;;;;;;;0.07;100.00;99503.72;7399060;19;20214;-45
2021/12/03 16:04:15;;;;;;;30.40;11.75;;;;;;;0.15;100.00;99494.06;7396581;19;20162;-46
2021/12/03 16:06:58;;;;;;;16.65;8.85;;;;;;;0.09;100.00;99480.19;7396999;19;20204;-44
2021/12/03 16:09:48;;;;;;;15.30;8.18;;;;;;;0.16;100.00;99485.66;7399206;19;20140;-48
2021/12/03 16:12:24;;;;;;;14.55;8.75;;;;;;;0.12;100.00;99465.16;7400805;19;20166;-45
2021/12/03 16:15:13;;;;;;;23.88;10.32;;;;;;;0.18;100.00;99476.47;7396016;19;20190;-47
2021/12/03 16:17:53;;;;;;;16.27;7.43;;;;;;;0.18;100.00;99476.47;7399160;19;20169;-45
2021/12/03 16:23:40;;;;;;;22.35;13.80;;;;;;;0.16;100.00;99463.72;7396047;19;20190;-48
2021/12/03 16:26:30;;;;;;;20.27;10.98;;;;;;;0.09;100.00;99464.97;7398404;19;20438;-45
2021/12/03 16:51:04;;;;;;;25.50;12.13;;;;;;;0.20;100.00;99470.72;7392469;19;20592;-45
2021/12/03 16:53:34;;;;;;;21.35;11.27;;;;;;;0.27;100.00;99469.47;7399260;19;20122;-46
2021/12/03 16:56:21;;;;;;;21.15;8.63;;;;;;;0.30;100.00;99466.25;7393597;19;20200;-46
2021/12/03 16:58:51;;;;;;;24.65;7.75;;;;;;;0.31;100.00;99475.59;7398142;19;20549;-47
2021/12/03 17:01:26;;;;;;;17.10;9.60;;;;;;;0.32;100.00;99479.88;7394607;19;20246;-47